sensor_id;sensor_type;location;lat;lon;timestamp;pressure;altitude;pressure_sealevel;temperature;humidity
48404;BME280;34202;52.536;6.042;2023-03-03T00:04:55;102713.60;;;0.55;100.00
48404;BME280;34202;52.536;6.042;2023-03-03T00:09:56;102709.55;;;0.56;100.00
48404;BME280;34202;52.536;6.042;2023-03-03T00:14:57;102707.27;;;0.57;100.00
48404;BME280;34202;52.536;6.042;2023-03-03T00:19:57;102711.36;;;0.60;100.00
48404;BME280;34202;52.536;6.042;2023-03-03T00:30:27;102715.20;;;0.58;100.00
48404;BME280;34202;52.536;6.042;2023-03-03T00:35:30;102715.53;;;0.55;100.00
48404;BME280;34202;52.536;6.042;2023-03-03T00:40:36;102719.49;;;0.54;100.00
48404;BME280;34202;52.536;6.042;2023-03-03T00:45:56;102723.70;;;0.53;100.00
48404;BME280;34202;52.536;6.042;2023-03-03T00:50:59;102730.09;;;0.51;100.00
48404;BME280;34202;52.536;6.042;2023-03-03T00:55:59;102730.00;;;0.46;100.00
48404;BME280;34202;52.536;6.042;2023-03-03T01:01:00;102729.77;;;0.43;100.00
48404;BME280;34202;52.536;6.042;2023-03-03T01:06:00;102737.45;;;0.40;100.00
48404;BME280;34202;52.536;6.042;2023-03-03T01:11:21;102730.71;;;0.37;100.00
48404;BME280;34202;52.536;6.042;2023-03-03T01:16:23;102727.98;;;0.35;100.00
48404;BME280;34202;52.536;6.042;2023-03-03T01:21:23;102723.75;;;0.34;100.00
48404;BME280;34202;52.536;6.042;2023-03-03T01:26:24;102723.83;;;0.34;100.00
48404;BME280;34202;52.536;6.042;2023-03-03T01:31:25;102722.57;;;0.34;100.00
48404;BME280;34202;52.536;6.042;2023-03-03T01:36:27;102717.64;;;0.37;100.00
48404;BME280;34202;52.536;6.042;2023-03-03T01:41:29;102717.63;;;0.39;100.00
48404;BME280;34202;52.536;6.042;2023-03-03T01:51:51;102713.09;;;0.35;100.00
48404;BME280;34202;52.536;6.042;2023-03-03T01:56:56;102712.48;;;0.34;100.00
48404;BME280;34202;52.536;6.042;2023-03-03T02:01:58;102708.52;;;0.34;100.00
48404;BME280;34202;52.536;6.042;2023-03-03T02:07:01;102704.15;;;0.33;100.00
48404;BME280;34202;52.536;6.042;2023-03-03T02:12:08;102702.48;;;0.33;100.00
48404;BME280;34202;52.536;6.042;2023-03-03T02:17:10;102702.67;;;0.35;100.00
48404;BME280;34202;52.536;6.042;2023-03-03T02:22:13;102704.91;;;0.38;100.00
48404;BME280;34202;52.536;6.042;2023-03-03T02:27:16;102700.20;;;0.41;100.00
48404;BME280;34202;52.536;6.042;2023-03-03T02:32:17;102701.10;;;0.44;100.00
48404;BME280;34202;52.536;6.042;2023-03-03T02:37:18;102705.94;;;0.47;100.00
48404;BME280;34202;52.536;6.042;2023-03-03T02:42:25;102703.31;;;0.48;100.00
48404;BME280;34202;52.536;6.042;2023-03-03T02:47:27;102698.61;;;0.50;100.00
48404;BME280;34202;52.536;6.042;2023-03-03T02:52:28;102701.02;;;0.52;100.00
48404;BME280;34202;52.536;6.042;2023-03-03T02:57:28;102698.32;;;0.55;100.00
48404;BME280;34202;52.536;6.042;2023-03-03T03:02:28;102696.06;;;0.56;100.00
48404;BME280;34202;52.536;6.042;2023-03-03T03:07:29;102699.46;;;0.59;100.00
48404;BME280;34202;52.536;6.042;2023-03-03T03:12:29;102700.09;;;0.60;100.00
48404;BME280;34202;52.536;6.042;2023-03-03T03:17:30;102694.21;;;0.62;100.00
48404;BME280;34202;52.536;6.042;2023-03-03T03:22:30;102691.43;;;0.64;100.00
48404;BME280;34202;52.536;6.042;2023-03-03T03:27:31;102696.77;;;0.66;100.00
48404;BME280;34202;52.536;6.042;2023-03-03T03:32:31;102700.48;;;0.67;100.00
48404;BME280;34202;52.536;6.042;2023-03-03T03:37:31;102698.92;;;0.69;100.00
48404;BME280;34202;52.536;6.042;2023-03-03T03:42:32;102695.89;;;0.70;100.00
48404;BME280;34202;52.536;6.042;2023-03-03T03:47:32;102696.29;;;0.73;100.00
48404;BME280;34202;52.536;6.042;2023-03-03T03:52:32;102701.59;;;0.75;100.00
48404;BME280;34202;52.536;6.042;2023-03-03T03:57:33;102700.02;;;0.77;100.00
48404;BME280;34202;52.536;6.042;2023-03-03T04:02:34;102705.46;;;0.79;100.00
48404;BME280;34202;52.536;6.042;2023-03-03T04:07:35;102704.71;;;0.80;100.00
48404;BME280;34202;52.536;6.042;2023-03-03T04:12:35;102707.48;;;0.83;100.00
48404;BME280;34202;52.536;6.042;2023-03-03T04:17:39;102705.58;;;0.85;100.00
48404;BME280;34202;52.536;6.042;2023-03-03T04:22:39;102705.58;;;0.87;100.00
48404;BME280;34202;52.536;6.042;2023-03-03T04:27:39;102705.53;;;0.91;100.00
48404;BME280;34202;52.536;6.042;2023-03-03T04:32:40;102705.98;;;0.94;100.00
48404;BME280;34202;52.536;6.042;2023-03-03T04:37:40;102704.75;;;0.97;100.00
48404;BME280;34202;52.536;6.042;2023-03-03T04:42:41;102706.44;;;0.99;100.00
48404;BME280;34202;52.536;6.042;2023-03-03T04:47:41;102707.11;;;1.01;100.00
48404;BME280;34202;52.536;6.042;2023-03-03T04:52:42;102704.39;;;1.03;100.00
48404;BME280;34202;52.536;6.042;2023-03-03T04:57:42;102697.86;;;1.06;100.00
48404;BME280;34202;52.536;6.042;2023-03-03T05:02:42;102699.12;;;1.09;100.00
48404;BME280;34202;52.536;6.042;2023-03-03T05:07:43;102699.95;;;1.10;100.00
48404;BME280;34202;52.536;6.042;2023-03-03T05:12:43;102698.69;;;1.12;100.00
48404;BME280;34202;52.536;6.042;2023-03-03T05:17:44;102700.39;;;1.14;100.00
48404;BME280;34202;52.536;6.042;2023-03-03T05:22:44;102704.30;;;1.16;100.00
48404;BME280;34202;52.536;6.042;2023-03-03T05:27:44;102704.05;;;1.20;100.00
48404;BME280;34202;52.536;6.042;2023-03-03T05:32:45;102710.95;;;1.22;100.00
48404;BME280;34202;52.536;6.042;2023-03-03T05:37:46;102707.27;;;1.24;100.00
48404;BME280;34202;52.536;6.042;2023-03-03T05:42:48;102714.35;;;1.24;100.00
48404;BME280;34202;52.536;6.042;2023-03-03T05:47:50;102716.56;;;1.26;100.00
48404;BME280;34202;52.536;6.042;2023-03-03T05:52:51;102717.35;;;1.27;100.00
48404;BME280;34202;52.536;6.042;2023-03-03T05:57:51;102720.65;;;1.30;100.00
48404;BME280;34202;52.536;6.042;2023-03-03T06:02:52;102713.27;;;1.32;100.00
48404;BME280;34202;52.536;6.042;2023-03-03T06:07:52;102718.45;;;1.35;100.00
48404;BME280;34202;52.536;6.042;2023-03-03T06:12:53;102720.29;;;1.37;100.00
48404;BME280;34202;52.536;6.042;2023-03-03T06:17:54;102716.96;;;1.39;100.00
48404;BME280;34202;52.536;6.042;2023-03-03T06:22:54;102710.79;;;1.41;100.00
48404;BME280;34202;52.536;6.042;2023-03-03T06:27:56;102713.23;;;1.44;100.00
48404;BME280;34202;52.536;6.042;2023-03-03T06:32:57;102706.95;;;1.47;100.00
48404;BME280;34202;52.536;6.042;2023-03-03T06:37:57;102712.45;;;1.49;100.00
48404;BME280;34202;52.536;6.042;2023-03-03T06:42:58;102718.86;;;1.53;100.00
48404;BME280;34202;52.536;6.042;2023-03-03T06:47:58;102721.83;;;1.53;100.00
48404;BME280;34202;52.536;6.042;2023-03-03T06:53:15;102725.73;;;1.55;100.00
48404;BME280;34202;52.536;6.042;2023-03-03T06:58:18;102732.34;;;1.59;100.00
48404;BME280;34202;52.536;6.042;2023-03-03T07:03:32;102737.90;;;1.62;100.00
48404;BME280;34202;52.536;6.042;2023-03-03T07:08:34;102738.94;;;1.64;100.00
48404;BME280;34202;52.536;6.042;2023-03-03T07:13:39;102749.11;;;1.67;100.00
48404;BME280;34202;52.536;6.042;2023-03-03T07:18:56;102756.05;;;1.71;100.00
48404;BME280;34202;52.536;6.042;2023-03-03T07:23:59;102759.52;;;1.73;100.00
48404;BME280;34202;52.536;6.042;2023-03-03T07:29:24;102763.48;;;1.76;100.00
48404;BME280;34202;52.536;6.042;2023-03-03T07:34:37;102766.64;;;1.79;100.00
48404;BME280;34202;52.536;6.042;2023-03-03T07:39:42;102771.89;;;1.83;100.00
48404;BME280;34202;52.536;6.042;2023-03-03T07:44:44;102779.83;;;1.88;100.00
48404;BME280;34202;52.536;6.042;2023-03-03T07:49:48;102790.36;;;1.94;100.00
48404;BME280;34202;52.536;6.042;2023-03-03T07:54:50;102795.56;;;1.97;100.00
48404;BME280;34202;52.536;6.042;2023-03-03T08:05:30;102805.32;;;2.06;100.00
48404;BME280;34202;52.536;6.042;2023-03-03T08:10:47;102813.95;;;2.11;100.00
48404;BME280;34202;52.536;6.042;2023-03-03T08:16:03;102814.89;;;2.17;100.00
48404;BME280;34202;52.536;6.042;2023-03-03T08:21:19;102817.80;;;2.20;100.00
48404;BME280;34202;52.536;6.042;2023-03-03T08:26:22;102814.15;;;2.21;100.00
48404;BME280;34202;52.536;6.042;2023-03-03T08:31:22;102818.39;;;2.27;100.00
48404;BME280;34202;52.536;6.042;2023-03-03T08:36:23;102818.91;;;2.33;100.00
48404;BME280;34202;52.536;6.042;2023-03-03T08:41:23;102815.91;;;2.39;100.00
48404;BME280;34202;52.536;6.042;2023-03-03T08:46:24;102816.03;;;2.47;100.00
48404;BME280;34202;52.536;6.042;2023-03-03T08:51:24;102812.88;;;2.54;100.00
48404;BME280;34202;52.536;6.042;2023-03-03T08:56:25;102816.88;;;2.62;100.00
48404;BME280;34202;52.536;6.042;2023-03-03T09:01:26;102812.73;;;2.72;100.00
48404;BME280;34202;52.536;6.042;2023-03-03T09:06:26;102813.49;;;2.82;100.00
48404;BME280;34202;52.536;6.042;2023-03-03T09:11:28;102816.04;;;2.94;100.00
48404;BME280;34202;52.536;6.042;2023-03-03T09:16:33;102814.90;;;3.05;100.00
48404;BME280;34202;52.536;6.042;2023-03-03T09:21:36;102812.35;;;3.21;100.00
48404;BME280;34202;52.536;6.042;2023-03-03T09:26:46;102816.19;;;3.34;100.00
48404;BME280;34202;52.536;6.042;2023-03-03T09:31:50;102815.23;;;3.48;100.00
48404;BME280;34202;52.536;6.042;2023-03-03T09:36:52;102814.09;;;3.59;100.00
48404;BME280;34202;52.536;6.042;2023-03-03T09:52:39;102814.27;;;3.93;100.00
48404;BME280;34202;52.536;6.042;2023-03-03T10:14:48;102827.30;;;4.41;100.00
48404;BME280;34202;52.536;6.042;2023-03-03T10:25:06;102822.73;;;4.67;100.00
48404;BME280;34202;52.536;6.042;2023-03-03T10:30:44;102821.23;;;4.84;100.00
48404;BME280;34202;52.536;6.042;2023-03-03T10:36:29;102820.83;;;4.95;100.00
48404;BME280;34202;52.536;6.042;2023-03-03T10:42:05;102823.67;;;5.05;100.00
48404;BME280;34202;52.536;6.042;2023-03-03T10:53:05;102817.57;;;5.38;100.00
48404;BME280;34202;52.536;6.042;2023-03-03T11:03:55;102808.51;;;5.78;100.00
48404;BME280;34202;52.536;6.042;2023-03-03T11:14:29;102807.91;;;6.22;100.00
48404;BME280;34202;52.536;6.042;2023-03-03T11:25:01;102801.69;;;6.66;100.00
48404;BME280;34202;52.536;6.042;2023-03-03T11:30:22;102803.16;;;6.84;100.00
48404;BME280;34202;52.536;6.042;2023-03-03T11:36:09;102798.92;;;6.95;100.00
48404;BME280;34202;52.536;6.042;2023-03-03T11:47:03;102786.46;;;7.43;100.00
48404;BME280;34202;52.536;6.042;2023-03-03T11:52:18;102786.39;;;7.48;100.00
48404;BME280;34202;52.536;6.042;2023-03-03T11:57:42;102785.20;;;7.56;100.00
48404;BME280;34202;52.536;6.042;2023-03-03T12:03:12;102788.57;;;7.57;100.00
48404;BME280;34202;52.536;6.042;2023-03-03T12:13:34;102781.70;;;7.54;100.00
48404;BME280;34202;52.536;6.042;2023-03-03T12:18:56;102778.68;;;7.60;100.00
48404;BME280;34202;52.536;6.042;2023-03-03T12:29:51;102768.07;;;7.70;100.00
48404;BME280;34202;52.536;6.042;2023-03-03T12:35:08;102762.61;;;7.75;100.00
48404;BME280;34202;52.536;6.042;2023-03-03T12:40:18;102757.11;;;7.83;100.00
48404;BME280;34202;52.536;6.042;2023-03-03T12:45:41;102760.02;;;7.86;98.92
48404;BME280;34202;52.536;6.042;2023-03-03T12:56:06;102757.10;;;7.69;96.22
48404;BME280;34202;52.536;6.042;2023-03-03T13:07:17;102744.52;;;7.49;96.88
48404;BME280;34202;52.536;6.042;2023-03-03T13:12:21;102744.64;;;7.55;97.58
48404;BME280;34202;52.536;6.042;2023-03-03T13:17:27;102743.36;;;7.61;97.82
48404;BME280;34202;52.536;6.042;2023-03-03T13:22:39;102747.27;;;7.66;97.91
48404;BME280;34202;52.536;6.042;2023-03-03T13:27:43;102748.08;;;7.72;98.23
48404;BME280;34202;52.536;6.042;2023-03-03T13:33:10;102744.48;;;7.77;98.13
48404;BME280;34202;52.536;6.042;2023-03-03T13:38:24;102744.45;;;7.83;97.92
48404;BME280;34202;52.536;6.042;2023-03-03T13:43:40;102741.79;;;7.89;97.84
48404;BME280;34202;52.536;6.042;2023-03-03T13:54:00;102726.98;;;7.95;96.83
48404;BME280;34202;52.536;6.042;2023-03-03T13:59:29;102723.56;;;7.96;96.10
48404;BME280;34202;52.536;6.042;2023-03-03T14:20:31;102712.56;;;7.98;94.80
48404;BME280;34202;52.536;6.042;2023-03-03T14:25:58;102711.60;;;8.00;93.73
48404;BME280;34202;52.536;6.042;2023-03-03T14:31:25;102708.81;;;7.96;92.58
48404;BME280;34202;52.536;6.042;2023-03-03T14:36:30;102705.91;;;7.93;92.07
48404;BME280;34202;52.536;6.042;2023-03-03T14:41:38;102701.72;;;7.89;91.76
48404;BME280;34202;52.536;6.042;2023-03-03T14:46:39;102701.61;;;7.86;90.37
48404;BME280;34202;52.536;6.042;2023-03-03T14:51:43;102697.71;;;7.74;88.75
48404;BME280;34202;52.536;6.042;2023-03-03T14:57:17;102696.92;;;7.61;88.75
48404;BME280;34202;52.536;6.042;2023-03-03T15:07:36;102682.79;;;7.66;90.08
48404;BME280;34202;52.536;6.042;2023-03-03T15:12:40;102680.23;;;7.70;88.74
48404;BME280;34202;52.536;6.042;2023-03-03T15:17:56;102680.08;;;7.68;88.20
48404;BME280;34202;52.536;6.042;2023-03-03T15:34:38;102659.82;;;7.79;88.30
48404;BME280;34202;52.536;6.042;2023-03-03T15:45:31;102653.83;;;7.81;88.37
48404;BME280;34202;52.536;6.042;2023-03-03T15:50:39;102650.93;;;7.78;87.82
48404;BME280;34202;52.536;6.042;2023-03-03T16:06:52;102651.41;;;7.63;87.96
48404;BME280;34202;52.536;6.042;2023-03-03T16:22:53;102655.11;;;7.42;87.75
48404;BME280;34202;52.536;6.042;2023-03-03T16:27:57;102656.89;;;7.36;87.29
48404;BME280;34202;52.536;6.042;2023-03-03T16:38:50;102660.05;;;7.19;88.08
48404;BME280;34202;52.536;6.042;2023-03-03T16:44:17;102660.00;;;7.08;88.43
48404;BME280;34202;52.536;6.042;2023-03-03T16:49:30;102663.34;;;6.99;88.57
48404;BME280;34202;52.536;6.042;2023-03-03T16:54:49;102662.88;;;6.89;88.73
48404;BME280;34202;52.536;6.042;2023-03-03T17:00:05;102661.77;;;6.81;89.14
48404;BME280;34202;52.536;6.042;2023-03-03T17:15:19;102669.57;;;6.64;89.50
48404;BME280;34202;52.536;6.042;2023-03-03T17:20:46;102673.71;;;6.54;88.79
48404;BME280;34202;52.536;6.042;2023-03-03T17:26:07;102684.38;;;6.47;88.80
48404;BME280;34202;52.536;6.042;2023-03-03T17:46:43;102691.28;;;6.11;88.67
48404;BME280;34202;52.536;6.042;2023-03-03T18:23:42;102704.44;;;5.84;90.18
48404;BME280;34202;52.536;6.042;2023-03-03T18:28:49;102706.89;;;5.81;90.58
48404;BME280;34202;52.536;6.042;2023-03-03T18:34:07;102709.54;;;5.82;90.95
48404;BME280;34202;52.536;6.042;2023-03-03T18:39:12;102711.98;;;5.79;91.02
48404;BME280;34202;52.536;6.042;2023-03-03T18:44:27;102713.13;;;5.78;91.32
48404;BME280;34202;52.536;6.042;2023-03-03T18:50:00;102715.92;;;5.78;91.69
48404;BME280;34202;52.536;6.042;2023-03-03T19:00:20;102719.48;;;5.78;92.01
48404;BME280;34202;52.536;6.042;2023-03-03T19:05:25;102720.83;;;5.77;92.22
48404;BME280;34202;52.536;6.042;2023-03-03T19:10:48;102720.84;;;5.77;92.49
48404;BME280;34202;52.536;6.042;2023-03-03T19:15:54;102724.00;;;5.78;92.79
48404;BME280;34202;52.536;6.042;2023-03-03T19:21:05;102724.32;;;5.77;92.86
48404;BME280;34202;52.536;6.042;2023-03-03T19:32:03;102726.71;;;5.71;92.95
48404;BME280;34202;52.536;6.042;2023-03-03T19:42:35;102721.94;;;5.63;93.17
48404;BME280;34202;52.536;6.042;2023-03-03T19:47:47;102725.31;;;5.61;93.32
48404;BME280;34202;52.536;6.042;2023-03-03T19:53:04;102731.88;;;5.61;93.49
48404;BME280;34202;52.536;6.042;2023-03-03T20:51:40;102749.16;;;5.47;95.10
48404;BME280;34202;52.536;6.042;2023-03-03T21:07:04;102753.80;;;5.35;95.46
48404;BME280;34202;52.536;6.042;2023-03-03T21:12:27;102762.29;;;5.32;95.64
48404;BME280;34202;52.536;6.042;2023-03-03T21:17:30;102762.33;;;5.30;95.94
48404;BME280;34202;52.536;6.042;2023-03-03T21:22:31;102759.58;;;5.30;96.08
48404;BME280;34202;52.536;6.042;2023-03-03T21:27:34;102762.40;;;5.31;96.25
48404;BME280;34202;52.536;6.042;2023-03-03T21:32:46;102760.88;;;5.31;96.25
48404;BME280;34202;52.536;6.042;2023-03-03T21:37:50;102764.63;;;5.30;95.90
48404;BME280;34202;52.536;6.042;2023-03-03T21:42:53;102763.16;;;5.29;95.88
48404;BME280;34202;52.536;6.042;2023-03-03T21:47:53;102759.64;;;5.28;95.66
48404;BME280;34202;52.536;6.042;2023-03-03T21:52:55;102764.29;;;5.28;95.58
48404;BME280;34202;52.536;6.042;2023-03-03T21:57:56;102761.48;;;5.27;95.56
48404;BME280;34202;52.536;6.042;2023-03-03T22:02:56;102761.42;;;5.26;95.59
48404;BME280;34202;52.536;6.042;2023-03-03T22:07:57;102755.64;;;5.24;95.68
48404;BME280;34202;52.536;6.042;2023-03-03T22:12:57;102750.13;;;5.21;95.79
48404;BME280;34202;52.536;6.042;2023-03-03T22:17:58;102750.27;;;5.21;95.75
48404;BME280;34202;52.536;6.042;2023-03-03T22:22:59;102749.60;;;5.21;95.42
48404;BME280;34202;52.536;6.042;2023-03-03T22:27:59;102745.54;;;5.23;95.35
48404;BME280;34202;52.536;6.042;2023-03-03T22:32:59;102743.52;;;5.24;95.53
48404;BME280;34202;52.536;6.042;2023-03-03T22:38:00;102741.42;;;5.23;95.70
48404;BME280;34202;52.536;6.042;2023-03-03T22:43:00;102746.23;;;5.23;95.82
48404;BME280;34202;52.536;6.042;2023-03-03T22:48:01;102746.36;;;5.22;95.76
48404;BME280;34202;52.536;6.042;2023-03-03T22:53:01;102744.77;;;5.21;95.77
48404;BME280;34202;52.536;6.042;2023-03-03T22:58:05;102746.84;;;5.21;95.85
48404;BME280;34202;52.536;6.042;2023-03-03T23:03:08;102748.02;;;5.21;95.87
48404;BME280;34202;52.536;6.042;2023-03-03T23:08:12;102748.88;;;5.21;96.14
48404;BME280;34202;52.536;6.042;2023-03-03T23:13:14;102754.34;;;5.20;96.29
48404;BME280;34202;52.536;6.042;2023-03-03T23:18:14;102746.81;;;5.18;96.44
48404;BME280;34202;52.536;6.042;2023-03-03T23:23:15;102741.80;;;5.15;96.65
48404;BME280;34202;52.536;6.042;2023-03-03T23:28:15;102741.50;;;5.13;96.87
48404;BME280;34202;52.536;6.042;2023-03-03T23:33:16;102743.64;;;5.11;97.01
48404;BME280;34202;52.536;6.042;2023-03-03T23:38:16;102745.77;;;5.12;97.02
48404;BME280;34202;52.536;6.042;2023-03-03T23:43:16;102740.29;;;5.13;96.86
48404;BME280;34202;52.536;6.042;2023-03-03T23:48:17;102743.05;;;5.13;97.10
48404;BME280;34202;52.536;6.042;2023-03-03T23:53:17;102744.36;;;5.12;97.10
48404;BME280;34202;52.536;6.042;2023-03-03T23:58:18;102748.63;;;5.11;97.13
